Time;durP1;ratioP1;P1;durP2;ratioP2;P2;SDS_P1;SDS_P2;PMS_P1;PMS_P2;Temp;Humidity;BMP_temperature;BMP_pressure;BME280_temperature;BME280_humidity;BME280_pressure;Samples;Min_cycle;Max_cycle;Signal;HPM_P1;HPM_P2
2021/04/16 00:00:13;;;;;;;;;;;;;;;-1.16;95.24;93420.34;4993418;28;20058;-89
2021/04/16 00:02:40;;;;;;;9.00;3.75;;;;;;;-1.26;96.09;93400.19;4992927;28;19925;-88
2021/04/16 00:05:07;;;;;;;9.70;3.78;;;;;;;-1.23;95.44;93409.22;4992861;28;20415;-88
2021/04/16 00:07:34;;;;;;;4.68;3.80;;;;;;;-1.25;95.81;93409.34;4993303;28;20042;-88
2021/04/16 00:10:00;;;;;;;;;;;;;;;-1.34;96.79;93410.16;4993518;28;20050;-88
2021/04/16 00:12:27;;;;;;;7.63;4.78;;;;;;;-1.45;97.36;93403.50;4993112;28;19922;-89
2021/04/16 00:14:53;;;;;;;8.25;5.40;;;;;;;-1.48;98.35;93396.22;4993246;28;20097;-88
2021/04/16 00:17:21;;;;;;;5.90;4.15;;;;;;;-1.39;98.71;93402.97;4993137;28;20050;-88
2021/04/16 00:19:47;;;;;;;10.30;4.93;;;;;;;-1.36;98.64;93391.84;4993017;28;20053;-89
2021/04/16 00:22:14;;;;;;;7.88;5.43;;;;;;;-1.35;99.07;93403.50;4992516;28;20054;-88
2021/04/16 00:24:40;;;;;;;10.10;5.10;;;;;;;-1.34;98.78;93392.53;4993097;28;20053;-87
2021/04/16 00:27:07;;;;;;;6.13;3.60;;;;;;;-1.39;98.29;93385.34;4993047;28;20050;-87
2021/04/16 00:29:33;;;;;;;4.43;3.20;;;;;;;-1.36;96.84;93405.25;4992912;28;20050;-88
2021/04/16 00:31:59;;;;;;;;;;;;;;;-1.41;96.43;93404.84;4992826;28;20054;-88
2021/04/16 00:34:27;;;;;;;4.43;2.70;;;;;;;-1.62;96.25;93388.09;4992816;28;19921;-88
2021/04/16 00:36:54;;;;;;;5.15;2.53;;;;;;;-1.48;96.04;93399.53;4992550;28;20392;-88
2021/04/16 00:39:23;;;;;;;3.70;2.83;;;;;;;-1.55;97.23;93400.16;4992694;28;20054;-88
2021/04/16 00:41:51;;;;;;;12.88;3.63;;;;;;;-1.64;97.20;93395.00;4992157;28;20418;-88
2021/04/16 00:44:18;;;;;;;4.78;3.38;;;;;;;-1.66;97.08;93403.63;4992270;28;20051;-88
2021/04/16 00:46:50;;;;;;;5.20;3.75;;;;;;;-1.77;97.35;93391.91;4992257;28;20042;-87
2021/04/16 00:49:20;;;;;;;8.95;3.95;;;;;;;-1.59;97.86;93421.53;4992349;28;20047;-88
2021/04/16 00:51:51;;;;;;;6.53;4.00;;;;;;;-1.59;98.09;93416.50;4992221;28;20522;-88
2021/04/16 00:54:20;;;;;;;9.32;3.55;;;;;;;-1.78;98.08;93378.53;4992630;28;20053;-88
2021/04/16 00:56:48;;;;;;;7.25;4.35;;;;;;;-1.56;97.81;93406.13;4992540;28;20046;-89
2021/04/16 00:59:16;;;;;;;8.32;4.80;;;;;;;-1.59;97.89;93403.91;4992907;28;20054;-90
2021/04/16 01:01:43;;;;;;;8.43;5.00;;;;;;;-1.65;98.55;93412.75;4992974;28;20077;-87
2021/04/16 01:04:10;;;;;;;8.07;4.65;;;;;;;-1.72;98.87;93399.88;4992734;28;20050;-87
2021/04/16 01:06:36;;;;;;;7.32;3.88;;;;;;;-1.66;99.66;93401.88;4993078;28;20046;-88
2021/04/16 01:09:04;;;;;;;6.10;3.83;;;;;;;-1.64;99.64;93399.22;4992759;28;20385;-87
2021/04/16 01:11:30;;;;;;;11.05;5.07;;;;;;;-1.60;98.94;93400.56;4993170;28;20047;-88
2021/04/16 01:13:58;;;;;;;5.50;3.88;;;;;;;-1.77;97.67;93395.25;4992751;28;20101;-88
2021/04/16 01:16:29;;;;;;;9.68;3.78;;;;;;;-1.70;97.53;93399.75;4992437;28;20050;-88
2021/04/16 01:18:57;;;;;;;6.32;3.40;;;;;;;-1.73;97.70;93400.81;4992277;28;20058;-88
2021/04/16 01:21:30;;;;;;;2.95;2.35;;;;;;;-1.84;97.32;93394.19;4992563;28;20046;-88
2021/04/16 01:24:03;;;;;;;6.47;2.05;;;;;;;-1.82;97.04;93411.66;4992408;28;20053;-88
2021/04/16 01:26:36;;;;;;;4.45;2.75;;;;;;;-1.87;97.35;93407.00;4992472;28;20054;-87
2021/04/16 01:29:03;;;;;;;3.92;2.85;;;;;;;-1.81;97.29;93410.75;4992737;28;20046;-87
2021/04/16 01:31:30;;;;;;;3.75;3.05;;;;;;;-1.96;96.89;93390.97;4995112;28;20057;-88
2021/04/16 01:33:56;;;;;;;3.03;2.35;;;;;;;-1.90;97.28;93414.84;4996615;28;20053;-88
2021/04/16 01:36:26;;;;;;;4.55;3.03;;;;;;;-1.98;97.57;93412.16;4996649;28;20046;-90
2021/04/16 01:38:55;;;;;;;4.93;2.92;;;;;;;-1.96;97.89;93398.50;4997562;28;20089;-89
2021/04/16 01:41:22;;;;;;;7.20;3.70;;;;;;;-2.38;98.18;93346.59;4996249;28;20415;-89
2021/04/16 01:43:57;;;;;;;8.57;4.63;;;;;;;-2.06;97.80;93392.66;4996133;28;20101;-88
2021/04/16 01:46:24;;;;;;;3.90;2.25;;;;;;;-2.23;98.44;93381.47;4996269;28;20053;-89
2021/04/16 01:48:53;;;;;;;7.15;3.22;;;;;;;-2.03;99.17;93413.31;4995946;28;20411;-88
2021/04/16 01:51:26;;;;;;;5.32;3.08;;;;;;;-2.00;100.00;93414.00;4995747;28;20054;-88
2021/04/16 01:54:08;;;;;;;6.53;3.72;;;;;;;-2.08;100.00;93386.94;4996317;28;20065;-89
2021/04/16 01:56:35;;;;;;;9.95;3.40;;;;;;;-1.97;100.00;93398.63;4996703;28;20038;-88
2021/04/16 01:59:03;;;;;;;7.22;3.70;;;;;;;-2.00;100.00;93386.31;4999690;28;20050;-89
2021/04/16 02:01:30;;;;;;;9.23;3.58;;;;;;;-2.06;100.00;93388.41;4995853;28;20094;-89
2021/04/16 02:03:56;;;;;;;7.13;6.15;;;;;;;-2.04;100.00;93394.09;4995568;28;20054;-89
2021/04/16 02:06:22;;;;;;;;;;;;;;;-1.95;100.00;93411.91;4996581;28;20104;-88
2021/04/16 02:08:48;;;;;;;3.78;2.88;;;;;;;-2.00;100.00;93407.22;4995753;28;19928;-90
2021/04/16 02:11:15;;;;;;;12.88;6.63;;;;;;;-2.01;100.00;93405.66;4995485;28;20492;-89
2021/04/16 02:13:41;;;;;;;;;;;;;;;-1.99;100.00;93408.03;4995948;28;20050;-89
2021/04/16 02:16:09;;;;;;;5.57;3.88;;;;;;;-2.06;100.00;93411.06;4995385;28;19929;-89
2021/04/16 02:18:35;;;;;;;7.25;4.10;;;;;;;-2.02;100.00;93399.03;4995567;28;20058;-88
2021/04/16 02:21:01;;;;;;;;;;;;;;;-1.98;100.00;93407.91;5007001;28;20061;-88
2021/04/16 02:23:27;;;;;;;6.60;4.20;;;;;;;-2.00;100.00;93408.97;5016159;28;19925;-88
2021/04/16 02:25:54;;;;;;;7.45;4.82;;;;;;;-2.00;100.00;93404.72;5006959;28;20047;-89
2021/04/16 02:28:20;;;;;;;10.55;5.65;;;;;;;-2.16;100.00;93388.38;4995698;28;20046;-88
2021/04/16 02:30:47;;;;;;;10.13;4.28;;;;;;;-2.16;100.00;93392.63;4995655;28;20046;-89
2021/04/16 02:33:14;;;;;;;9.57;4.53;;;;;;;-2.01;100.00;93415.72;4996318;28;20137;-88
2021/04/16 02:35:40;;;;;;;5.63;4.07;;;;;;;-1.95;100.00;93410.16;4995612;28;20479;-88
2021/04/16 02:38:06;;;;;;;;;;;;;;;-1.96;100.00;93411.09;4998024;28;20073;-89
2021/04/16 02:40:33;;;;;;;6.38;3.80;;;;;;;-1.99;100.00;93418.13;4996625;28;20374;-89
2021/04/16 02:43:00;;;;;;;6.20;4.68;;;;;;;-2.06;100.00;93411.06;4996768;28;20051;-89
2021/04/16 02:45:27;;;;;;;4.72;3.35;;;;;;;-2.18;99.08;93415.41;4996717;28;20046;-89
2021/04/16 02:47:54;;;;;;;5.57;4.20;;;;;;;-2.16;99.76;93420.31;4996784;28;20050;-89
2021/04/16 02:50:24;;;;;;;5.60;3.65;;;;;;;-2.15;99.86;93415.16;4997325;28;20046;-88
2021/04/16 02:52:50;;;;;;;2.60;2.05;;;;;;;-2.09;99.23;93423.13;4997096;28;20046;-87
2021/04/16 02:55:17;;;;;;;;;;;;;;;-2.13;99.36;93425.06;4995024;28;20046;-88
2021/04/16 02:57:43;;;;;;;4.78;3.03;;;;;;;-2.18;99.26;93414.63;4994475;28;19922;-88
2021/04/16 03:00:12;;;;;;;5.65;2.15;;;;;;;-2.18;99.38;93402.81;4994274;28;20490;-89
2021/04/16 03:02:39;;;;;;;6.82;3.58;;;;;;;-2.20;99.31;93409.69;4994859;28;20050;-88
2021/04/16 03:05:07;;;;;;;4.25;3.30;;;;;;;-2.28;99.18;93392.72;4995146;28;20057;-91
2021/04/16 03:07:34;;;;;;;7.03;3.55;;;;;;;-2.16;99.14;93413.53;4994428;28;20046;-89
2021/04/16 03:10:00;;;;;;;6.07;3.95;;;;;;;-2.20;99.47;93422.28;4994977;28;20054;-88
2021/04/16 03:12:26;;;;;;;;;;;;;;;-2.21;98.53;93417.38;4995274;28;20050;-89
2021/04/16 03:14:52;;;;;;;8.50;4.00;;;;;;;-2.33;98.89;93414.94;4994810;28;19921;-89
2021/04/16 03:17:18;;;;;;;;;;;;;;;-2.41;98.89;93399.66;4995197;28;20442;-88
2021/04/16 03:19:45;;;;;;;4.97;3.08;;;;;;;-2.50;99.53;93402.94;4994724;28;19922;-89
2021/04/16 03:22:11;;;;;;;;;;;;;;;-2.51;100.00;93409.69;4994869;28;20054;-88
2021/04/16 03:24:38;;;;;;;5.20;3.35;;;;;;;-2.51;100.00;93411.41;4994617;28;19921;-89
2021/04/16 03:27:05;;;;;;;7.57;2.63;;;;;;;-2.55;100.00;93405.81;4994208;28;20490;-89
2021/04/16 03:29:31;;;;;;;9.80;3.30;;;;;;;-2.55;100.00;93414.16;4994498;28;20072;-88
2021/04/16 03:31:57;;;;;;;;;;;;;;;-2.49;100.00;93412.09;4994870;28;20050;-89
2021/04/16 03:34:24;;;;;;;11.10;4.00;;;;;;;-2.71;100.00;93391.19;4994778;28;19976;-88
2021/04/16 03:36:50;;;;;;;8.38;4.68;;;;;;;-2.62;100.00;93417.31;4995200;28;20451;-88
2021/04/16 03:39:16;;;;;;;12.20;7.15;;;;;;;-2.60;100.00;93418.00;4995303;28;20050;-88
2021/04/16 03:41:43;;;;;;;;;;;;;;;-2.76;100.00;93416.72;4994179;28;20410;-89
2021/04/16 03:44:10;;;;;;;12.07;8.65;;;;;;;-2.93;100.00;93424.81;4991341;28;19937;-89
2021/04/16 03:46:36;;;;;;;10.55;6.03;;;;;;;-2.98;100.00;93417.63;4993039;28;20042;-87
2021/04/16 03:49:02;;;;;;;;;;;;;;;-2.96;100.00;93426.63;4993711;28;20050;-89
2021/04/16 03:51:29;;;;;;;5.88;4.63;;;;;;;-3.08;100.00;93437.66;4993358;28;19921;-89
2021/04/16 03:53:56;;;;;;;4.55;4.13;;;;;;;-3.08;100.00;93445.19;4992851;28;20410;-88
2021/04/16 03:56:23;;;;;;;8.38;5.90;;;;;;;-3.21;100.00;93440.31;4993330;28;20054;-88
2021/04/16 03:58:51;;;;;;;6.22;4.55;;;;;;;-3.39;100.00;93440.84;4994033;28;20050;-90
2021/04/16 04:01:17;;;;;;;9.90;5.90;;;;;;;-3.50;100.00;93436.66;4994446;28;20053;-88
2021/04/16 04:03:44;;;;;;;26.75;11.73;;;;;;;-3.37;100.00;93435.72;4995599;28;20078;-88
2021/04/16 04:06:10;;;;;;;9.55;7.03;;;;;;;-3.15;100.00;93439.06;4993759;28;20163;-88
2021/04/16 04:08:36;;;;;;;11.07;6.20;;;;;;;-3.04;100.00;93449.06;4993757;28;20491;-89
2021/04/16 04:11:02;;;;;;;;;;;;;;;-2.93;100.00;93437.38;4995010;28;20050;-88
2021/04/16 04:13:29;;;;;;;10.82;5.57;;;;;;;-2.83;100.00;93450.78;4994171;28;19925;-88
2021/04/16 04:15:56;;;;;;;;;;;;;;;-2.70;100.00;93448.09;4993945;28;20064;-89
2021/04/16 04:18:22;;;;;;;9.43;4.85;;;;;;;-2.62;100.00;93443.25;4994819;28;19921;-89
2021/04/16 04:20:48;;;;;;;;;;;;;;;-2.51;100.00;93447.41;4995261;28;20050;-88
2021/04/16 04:23:21;;;;;;;10.75;7.13;;;;;;;-2.47;100.00;93445.44;4995570;28;19944;-88
2021/04/16 04:25:47;;;;;;;21.83;9.82;;;;;;;-2.46;100.00;93437.00;4995904;28;20101;-88
2021/04/16 04:28:13;;;;;;;;;;;;;;;-2.34;100.00;93445.25;4995112;28;20060;-89
2021/04/16 04:30:40;;;;;;;12.50;8.82;;;;;;;-2.34;100.00;93445.25;4994446;28;19928;-89
2021/04/16 04:33:07;;;;;;;22.63;11.70;;;;;;;-2.36;100.00;93447.09;4992246;28;20066;-89
2021/04/16 04:39:12;;;;;;;10.85;5.85;;;;;;;-2.09;100.00;93446.56;4994689;28;20176;-89
2021/04/16 04:41:38;;;;;;;15.75;6.53;;;;;;;-2.10;100.00;93446.66;4995309;28;20391;-89
2021/04/16 04:44:05;;;;;;;12.93;7.70;;;;;;;-2.03;100.00;93451.06;4994785;28;20061;-89
2021/04/16 04:47:21;;;;;;;15.90;5.38;;;;;;;-1.95;100.00;93447.94;4995504;28;20050;-89
2021/04/16 04:49:51;;;;;;;14.50;6.18;;;;;;;-1.92;100.00;93421.69;4995419;28;20066;-89
2021/04/16 04:52:23;;;;;;;8.00;5.25;;;;;;;-1.58;100.00;93459.16;4994214;28;20056;-90
2021/04/16 04:54:52;;;;;;;11.95;6.25;;;;;;;-1.40;100.00;93443.41;4994575;28;20108;-90
2021/04/16 04:57:20;;;;;;;16.02;7.05;;;;;;;-1.04;100.00;93456.31;4994028;28;20046;-90
2021/04/16 04:59:47;;;;;;;9.43;7.45;;;;;;;-1.00;99.61;93442.53;4992694;28;20089;-91
2021/04/16 05:02:14;;;;;;;7.25;4.75;;;;;;;-0.67;98.33;93469.97;4992346;28;20072;-91
2021/04/16 05:04:44;;;;;;;8.93;5.18;;;;;;;-0.44;97.87;93467.16;4991816;28;20048;-91
2021/04/16 05:07:14;;;;;;;7.65;4.63;;;;;;;-0.36;97.23;93449.63;4992253;28;20053;-93
2021/04/16 05:09:44;;;;;;;6.03;4.32;;;;;;;-0.10;97.22;93464.16;4991806;28;20042;-93
2021/04/16 05:12:24;;;;;;;;;;;;;;;;;;;;;
2021/04/16 05:14:54;;;;;;;8.20;4.28;;;;;;;0.24;97.66;93471.19;4991295;28;20054;-92
2021/04/16 05:17:21;;;;;;;10.55;4.22;;;;;;;0.46;96.77;93474.28;4991402;28;20058;-92
2021/04/16 05:19:50;;;;;;;8.27;5.93;;;;;;;0.12;95.88;93386.44;4991218;28;20054;-93
2021/04/16 05:22:28;;;;;;;7.45;5.53;;;;;;;0.91;94.97;93477.75;4991467;28;20488;-93
2021/04/16 05:24:54;;;;;;;14.43;7.30;;;;;;;1.01;91.46;93482.75;4991319;28;20077;-91
2021/04/16 05:27:21;;;;;;;;;;;;;;;1.18;88.93;93482.91;4991774;28;20046;-91
2021/04/16 05:29:48;;;;;;;30.65;7.43;;;;;;;1.20;89.08;93483.53;4991249;28;19971;-92
2021/04/16 05:32:16;;;;;;;10.10;7.05;;;;;;;1.14;88.47;93489.19;4991552;28;20054;-91
2021/04/16 05:34:43;;;;;;;9.88;6.03;;;;;;;0.96;88.97;93474.78;4991373;28;20084;-91
2021/04/16 05:37:10;;;;;;;12.55;7.07;;;;;;;1.40;90.50;93478.34;4991291;28;20054;-91
2021/04/16 05:39:37;;;;;;;8.50;6.13;;;;;;;1.52;88.51;93456.91;4991259;28;20061;-90
2021/04/16 05:42:04;;;;;;;9.65;5.28;;;;;;;1.96;85.23;93480.59;4991128;28;20058;-92
2021/04/16 05:44:30;;;;;;;14.20;6.43;;;;;;;1.87;84.31;93483.06;4991113;28;20046;-92
2021/04/16 05:46:57;;;;;;;12.18;5.82;;;;;;;2.13;84.01;93487.34;4991091;28;20054;-90
2021/04/16 05:49:25;;;;;;;7.78;4.85;;;;;;;2.33;83.75;93488.84;4991312;28;20046;-93
2021/04/16 05:51:51;;;;;;;6.03;3.85;;;;;;;2.40;83.15;93485.56;4990570;28;20487;-92
2021/04/16 05:54:22;;;;;;;8.50;4.95;;;;;;;2.43;83.75;93474.31;4991013;28;20054;-92
2021/04/16 05:56:49;;;;;;;8.65;5.25;;;;;;;2.73;84.77;93479.03;4990964;28;20521;-91
2021/04/16 05:59:16;;;;;;;8.95;4.70;;;;;;;2.98;83.52;93474.78;4990751;28;20097;-91
2021/04/16 06:01:42;;;;;;;;;;;;;;;3.24;81.76;93480.69;4991476;28;20086;-91
2021/04/16 06:04:15;;;;;;;6.40;3.88;;;;;;;3.51;79.77;93471.97;4991184;28;19921;-91
2021/04/16 06:06:41;;;;;;;8.38;4.38;;;;;;;3.64;79.85;93463.84;4990925;28;20065;-90
2021/04/16 06:09:08;;;;;;;8.20;5.15;;;;;;;4.08;79.01;93461.88;4991024;28;20050;-91
2021/04/16 06:11:34;;;;;;;6.63;3.92;;;;;;;4.46;76.97;93464.59;4990817;28;20047;-90
2021/04/16 06:14:01;;;;;;;;;;;;;;;4.73;75.00;93465.13;4991244;28;20054;-91
2021/04/16 06:16:27;;;;;;;8.90;4.85;;;;;;;5.06;75.47;93469.22;4991842;28;19922;-90
2021/04/16 06:18:53;;;;;;;;;;;;;;;5.31;72.79;93463.97;4995051;28;20050;-89
2021/04/16 06:21:20;;;;;;;7.47;4.93;;;;;;;5.51;73.23;93455.84;4995117;28;19921;-90
2021/04/16 06:23:46;;;;;;;;;;;;;;;5.81;72.85;93454.16;4995412;28;20042;-90
2021/04/16 06:26:12;;;;;;;8.05;4.22;;;;;;;6.13;70.12;93449.75;4994787;28;19922;-89
2021/04/16 06:28:38;;;;;;;;;;;;;;;6.28;65.83;93449.72;4995428;28;20050;-90
2021/04/16 06:31:05;;;;;;;5.13;3.38;;;;;;;5.85;64.62;93452.06;4991440;28;19933;-88
2021/04/16 06:33:33;;;;;;;5.78;3.92;;;;;;;5.94;65.61;93440.81;4994234;28;20050;-89
2021/04/16 06:36:02;;;;;;;4.78;2.78;;;;;;;6.15;65.25;93435.03;4994301;28;20458;-88
2021/04/16 06:38:31;;;;;;;7.25;2.70;;;;;;;5.96;63.52;93443.97;4992855;28;20050;-87
2021/04/16 06:40:59;;;;;;;9.25;3.67;;;;;;;5.59;65.00;93448.94;4993247;28;20096;-89
2021/04/16 06:43:32;;;;;;;263.55;109.75;;;;;;;4.95;64.32;93442.38;4993674;28;20058;-89
2021/04/16 06:45:59;;;;;;;13.60;6.20;;;;;;;4.67;67.10;93450.50;4991493;28;20039;-88
2021/04/16 06:48:27;;;;;;;29.60;12.63;;;;;;;4.83;69.45;93459.81;4993439;28;20058;-86
2021/04/16 06:50:58;;;;;;;12.40;5.55;;;;;;;4.46;68.49;93456.19;4990786;28;20046;-88
2021/04/16 06:53:33;;;;;;;7.13;4.30;;;;;;;4.71;69.36;93433.94;4993115;28;20051;-87
2021/04/16 06:56:02;;;;;;;10.57;3.78;;;;;;;4.88;68.24;93444.84;4991573;28;20046;-85
2021/04/16 06:58:34;;;;;;;11.07;3.13;;;;;;;5.06;69.92;93459.81;4993057;28;20053;-87
2021/04/16 07:01:10;;;;;;;7.07;3.20;;;;;;;5.26;69.54;93459.38;4993025;28;20065;-87
2021/04/16 07:03:43;;;;;;;10.35;4.47;;;;;;;5.75;65.43;93454.84;4991017;28;20384;-90
2021/04/16 07:06:19;;;;;;;5.10;3.00;;;;;;;6.12;63.16;93455.78;4992824;28;20583;-86
2021/04/16 07:08:52;;;;;;;4.78;2.95;;;;;;;5.94;62.44;93450.22;4993710;28;20458;-85
2021/04/16 07:11:24;;;;;;;3.25;2.47;;;;;;;6.18;62.34;93456.03;4993449;28;20047;-86
2021/04/16 07:13:51;;;;;;;4.20;2.38;;;;;;;6.32;61.48;93459.56;4993451;28;21109;-86
2021/04/16 07:16:19;;;;;;;9.52;2.28;;;;;;;6.24;60.49;93463.00;4993243;28;20495;-86
2021/04/16 07:18:50;;;;;;;4.05;2.33;;;;;;;6.35;60.85;93457.44;4993504;28;20050;-85
2021/04/16 07:21:18;;;;;;;5.78;2.55;;;;;;;6.62;60.86;93465.44;4993334;28;20053;-85
2021/04/16 07:23:49;;;;;;;4.72;2.80;;;;;;;7.04;59.69;93458.03;4993220;28;20101;-86
2021/04/16 07:26:32;;;;;;;5.20;2.20;;;;;;;7.57;60.40;93468.91;4992683;28;20054;-87
2021/04/16 07:28:59;;;;;;;3.53;1.52;;;;;;;7.31;55.88;93452.41;4991154;28;20049;-85
2021/04/16 07:31:48;;;;;;;3.67;2.00;;;;;;;7.15;55.34;93458.53;4992500;28;20052;-87
2021/04/16 07:34:32;;;;;;;14.55;3.88;;;;;;;7.65;57.89;93461.13;4991785;28;20208;-86
2021/04/16 07:37:09;;;;;;;3.85;1.90;;;;;;;7.97;54.47;93458.19;4991690;28;20066;-84
2021/04/16 07:39:42;;;;;;;2.40;1.75;;;;;;;7.77;54.71;93463.19;4992532;28;20415;-85
2021/04/16 07:42:32;;;;;;;3.20;1.40;;;;;;;8.00;55.62;93455.25;4990772;28;20046;-84
2021/04/16 07:45:17;;;;;;;2.13;1.65;;;;;;;7.95;49.37;93467.81;4989150;28;20054;-85
2021/04/16 07:47:44;;;;;;;3.40;1.60;;;;;;;7.70;53.38;93453.69;4989464;28;20046;-86
2021/04/16 07:50:25;;;;;;;2.78;1.25;;;;;;;7.69;53.58;93456.44;4992374;28;20077;-86
2021/04/16 07:52:52;;;;;;;5.15;2.63;;;;;;;8.18;53.83;93459.09;4990598;28;20047;-85
2021/04/16 07:55:23;;;;;;;4.20;2.17;;;;;;;8.42;52.15;93456.06;4992112;28;20422;-85
2021/04/16 07:58:03;;;;;;;5.05;2.75;;;;;;;8.64;52.85;93460.31;4991996;28;20636;-87
2021/04/16 08:00:33;;;;;;;2.83;2.08;;;;;;;8.46;51.44;93463.38;4990266;28;20781;-87
2021/04/16 08:03:07;;;;;;;7.03;2.47;;;;;;;8.89;52.87;93467.53;4992378;28;20476;-86
2021/04/16 08:05:36;;;;;;;5.50;1.70;;;;;;;9.38;51.18;93472.53;4992534;28;20050;-85
2021/04/16 08:08:08;;;;;;;5.95;2.05;;;;;;;9.47;47.76;93468.81;4992279;28;20055;-85
2021/04/16 08:10:36;;;;;;;3.72;1.70;;;;;;;9.30;48.95;93448.66;4992352;28;20451;-84
2021/04/16 08:13:07;;;;;;;3.58;2.03;;;;;;;9.05;49.34;93476.63;4992597;28;20050;-87
2021/04/16 08:15:52;;;;;;;4.65;2.13;;;;;;;9.25;48.40;93473.31;4992367;28;20418;-88
2021/04/16 08:18:27;;;;;;;1.83;1.33;;;;;;;9.12;48.69;93441.53;4992089;28;20414;-86
2021/04/16 08:21:02;;;;;;;3.08;1.67;;;;;;;9.60;47.28;93462.91;4992068;28;20054;-87
2021/04/16 08:23:35;;;;;;;4.55;2.38;;;;;;;9.74;48.27;93469.63;4992222;28;20505;-88
2021/04/16 08:26:04;;;;;;;10.35;3.63;;;;;;;9.78;50.58;93476.91;4992079;28;20047;-84
2021/04/16 08:28:46;;;;;;;4.75;2.08;;;;;;;9.98;48.17;93462.31;4992017;28;20087;-88
2021/04/16 08:31:16;;;;;;;4.07;1.85;;;;;;;9.86;48.84;93444.13;4991993;28;20427;-84
2021/04/16 08:33:47;;;;;;;2.65;1.45;;;;;;;9.99;45.68;93456.16;4991686;28;20109;-86
2021/04/16 08:36:22;;;;;;;3.88;1.92;;;;;;;9.89;43.51;93477.13;4982078;28;20050;-85
2021/04/16 08:38:56;;;;;;;2.95;1.35;;;;;;;9.92;44.10;93470.78;4986006;28;20530;-85
2021/04/16 08:41:24;;;;;;;3.35;1.55;;;;;;;9.84;40.54;93464.09;4989530;28;20113;-86
2021/04/16 08:43:54;;;;;;;2.72;1.48;;;;;;;9.70;42.94;93452.25;4989538;28;20543;-89
2021/04/16 08:49:19;;;;;;;3.67;1.67;;;;;;;9.68;42.39;93449.88;4986708;28;20057;-90
2021/04/16 08:51:50;;;;;;;7.72;2.50;;;;;;;10.09;42.66;93435.22;4995581;28;20049;-87
2021/04/16 08:54:23;;;;;;;1.92;1.27;;;;;;;10.23;41.35;93450.63;5004883;28;20519;-91
2021/04/16 08:56:57;;;;;;;3.30;1.23;;;;;;;9.63;38.07;93447.13;5005821;28;20141;-88
2021/04/16 08:59:27;;;;;;;3.05;1.70;;;;;;;9.87;39.01;93434.69;4984697;28;20061;-88
2021/04/16 09:01:57;;;;;;;2.50;1.80;;;;;;;9.69;37.18;93414.75;4987047;28;20512;-88
2021/04/16 09:04:40;;;;;;;6.90;1.50;;;;;;;9.81;38.13;93418.28;4989144;28;20056;-89
2021/04/16 09:07:28;;;;;;;3.38;1.58;;;;;;;10.26;40.44;93415.06;4988770;28;20050;-89
2021/04/16 09:09:56;;;;;;;2.65;1.40;;;;;;;10.66;38.92;93416.69;4983479;28;20046;-93
2021/04/16 09:12:48;;;;;;;5.75;2.33;;;;;;;10.99;38.88;93401.31;4983720;28;20852;-88
2021/04/16 09:15:43;;;;;;;1.73;1.25;;;;;;;10.94;37.91;93396.81;4977396;28;20101;-84
2021/04/16 09:18:22;;;;;;;;;;;;;;;10.73;37.30;93403.81;4985890;28;20054;-88
2021/04/16 09:21:10;;;;;;;2.08;1.38;;;;;;;10.74;37.90;93394.34;4983883;28;20020;-91
2021/04/16 09:24:04;;;;;;;1.95;1.08;;;;;;;10.45;35.82;93393.91;4986124;28;20057;-88
2021/04/16 09:26:54;;;;;;;1.83;1.20;;;;;;;9.30;38.67;93394.84;4984621;28;20042;-88
2021/04/16 09:29:44;;;;;;;3.92;2.03;;;;;;;9.82;35.77;93386.50;5004171;28;20045;-92
2021/04/16 09:32:42;;;;;;;2.67;1.45;;;;;;;9.62;37.03;93389.91;4998844;28;20054;-90
2021/04/16 09:35:11;;;;;;;8.98;1.38;;;;;;;9.72;39.08;93360.50;4987739;28;20499;-85
2021/04/16 09:37:39;;;;;;;3.78;1.42;;;;;;;9.93;39.13;93377.44;4990234;28;20054;-92
2021/04/16 09:40:30;;;;;;;3.30;1.42;;;;;;;10.41;40.08;93378.84;4989260;28;20060;-91
2021/04/16 09:42:59;;;;;;;2.08;1.20;;;;;;;10.48;37.14;93378.06;4986419;28;20057;-85
2021/04/16 09:45:45;;;;;;;1.75;0.80;;;;;;;10.06;36.29;93386.06;4989836;28;20509;-86
2021/04/16 09:48:23;;;;;;;;;;;;;;;9.81;37.23;93386.72;4990062;28;20081;-88
2021/04/16 09:51:10;;;;;;;2.97;1.88;;;;;;;9.49;40.15;93382.19;4988179;28;19956;-84
2021/04/16 09:53:38;;;;;;;4.15;1.85;;;;;;;9.66;39.34;93374.91;4992823;28;20046;-87
2021/04/16 09:56:14;;;;;;;1.58;1.10;;;;;;;9.93;37.01;93372.28;4992823;28;20054;-89
2021/04/16 09:59:08;;;;;;;;;;;;;;;9.76;38.72;93372.72;4992210;28;20054;-86
2021/04/16 10:01:52;;;;;;;11.23;1.75;;;;;;;9.97;37.59;93357.28;4991618;28;19926;-87
2021/04/16 10:04:46;;;;;;;4.55;1.45;;;;;;;10.72;38.97;93350.88;4993923;28;20093;-87
2021/04/16 10:07:13;;;;;;;2.70;1.25;;;;;;;10.87;34.70;93353.16;4994608;28;20158;-91
2021/04/16 10:09:41;;;;;;;1.85;1.17;;;;;;;10.44;35.43;93346.88;4991192;28;20130;-89
2021/04/16 10:12:14;;;;;;;2.30;1.30;;;;;;;9.04;37.88;93350.28;4994353;28;20495;-91
2021/04/16 10:14:41;;;;;;;3.05;1.67;;;;;;;8.85;39.07;93346.72;4994539;28;20058;-88
2021/04/16 10:17:17;;;;;;;2.53;0.90;;;;;;;9.12;40.74;93354.41;4994707;28;20050;-88
2021/04/16 10:19:45;;;;;;;3.63;1.55;;;;;;;9.74;38.20;93338.00;4994257;28;20050;-90
2021/04/16 10:22:16;;;;;;;3.58;1.48;;;;;;;10.56;38.23;93341.88;4994631;28;20418;-88
2021/04/16 12:40:01;;;;;;;2.33;1.23;;;;;;;12.08;31.31;93209.75;4972261;28;20065;-91
2021/04/16 12:42:27;;;;;;;4.60;1.42;;;;;;;12.30;32.45;93204.09;4972292;28;20051;-90
2021/04/16 12:44:54;;;;;;;;;;;;;;;12.36;29.40;93197.31;4972955;28;20055;-90
2021/04/16 12:47:24;;;;;;;3.45;2.03;;;;;;;12.52;31.68;93193.28;4972563;28;19922;-88
2021/04/16 12:49:51;;;;;;;2.78;1.10;;;;;;;12.91;29.10;93185.91;4972361;28;20099;-88
2021/04/16 12:52:19;;;;;;;4.85;2.55;;;;;;;13.02;30.39;93192.09;4972463;28;20053;-91
2021/04/16 12:54:49;;;;;;;2.50;1.15;;;;;;;13.31;30.29;93191.38;4972405;28;20054;-90
2021/04/16 12:57:19;;;;;;;1.63;1.15;;;;;;;13.43;30.45;93188.78;4972456;28;20054;-87
2021/04/16 12:59:46;;;;;;;3.25;1.30;;;;;;;13.25;30.05;93190.50;4969623;28;20124;-87
2021/04/16 13:02:21;;;;;;;2.90;1.45;;;;;;;13.51;30.88;93190.28;4977101;28;20090;-89
2021/04/16 13:04:48;;;;;;;2.88;1.55;;;;;;;13.85;31.67;93186.00;4972549;28;20054;-90
2021/04/16 13:07:14;;;;;;;2.00;0.90;;;;;;;13.93;30.99;93181.50;4972247;28;20417;-90
2021/04/16 13:09:40;;;;;;;;;;;;;;;13.86;30.61;93195.34;4972663;28;20050;-90
2021/04/16 13:12:07;;;;;;;2.28;1.20;;;;;;;13.65;29.26;93190.81;4972205;28;19929;-90
2021/04/16 13:14:34;;;;;;;4.18;1.75;;;;;;;12.71;32.32;93186.25;4971879;28;20047;-90
2021/04/16 13:17:01;;;;;;;3.55;1.95;;;;;;;13.06;33.73;93188.03;4972322;28;20050;-89
2021/04/16 13:19:32;;;;;;;2.05;1.33;;;;;;;11.78;33.77;93187.34;4971867;28;20067;-91
2021/04/16 13:22:03;;;;;;;5.57;2.28;;;;;;;11.65;34.29;93190.84;4972455;28;20054;-90
2021/04/16 13:24:31;;;;;;;2.35;1.10;;;;;;;12.05;34.70;93197.31;4972032;28;20047;-90
2021/04/16 13:26:57;;;;;;;2.40;1.35;;;;;;;11.61;33.97;93202.56;4973726;28;20062;-94
2021/04/16 13:29:23;;;;;;;;;;;;;;;11.59;33.76;93199.44;4976170;28;20050;-92
2021/04/16 13:31:51;;;;;;;2.80;1.38;;;;;;;11.74;36.58;93196.47;4976138;28;19933;-90
2021/04/16 13:34:17;;;;;;;1.58;0.90;;;;;;;11.97;34.62;93200.16;4986727;28;20059;-86
2021/04/16 13:36:44;;;;;;;2.33;1.50;;;;;;;11.43;35.96;93193.09;4997900;28;20050;-90
2021/04/16 13:39:10;;;;;;;2.33;1.58;;;;;;;11.92;36.59;93175.09;4996877;28;20059;-91
2021/04/16 13:41:36;;;;;;;;;;;;;;;11.91;34.92;93178.66;5002087;28;20046;-92
2021/04/16 13:44:04;;;;;;;2.92;1.80;;;;;;;11.59;36.55;93181.44;4996076;28;19922;-91
2021/04/16 13:46:32;;;;;;;3.92;2.60;;;;;;;11.66;36.05;93174.41;4995246;28;20100;-86
2021/04/16 13:49:01;;;;;;;4.05;2.28;;;;;;;11.79;35.56;93175.25;4995223;28;20050;-90
2021/04/16 13:51:28;;;;;;;4.28;2.08;;;;;;;12.07;34.52;93171.38;4996030;28;20046;-84
2021/04/16 13:53:55;;;;;;;2.90;1.65;;;;;;;12.27;33.52;93174.41;4994675;28;20093;-85
2021/04/16 13:56:22;;;;;;;2.67;1.10;;;;;;;12.26;34.45;93185.72;4994849;28;20419;-88
2021/04/16 13:58:48;;;;;;;2.95;1.00;;;;;;;11.81;36.54;93165.53;4994727;28;20076;-89
2021/04/16 14:01:14;;;;;;;;;;;;;;;11.58;34.37;93183.19;4998847;28;20050;-90
2021/04/16 14:03:42;;;;;;;4.57;2.30;;;;;;;11.27;35.38;93174.66;5014711;28;20267;-88
2021/04/16 14:06:14;;;;;;;2.97;1.63;;;;;;;11.52;34.53;93184.06;5014468;28;20050;-86
2021/04/16 14:08:44;;;;;;;5.90;1.90;;;;;;;11.71;35.05;93194.34;5014212;28;20391;-92
2021/04/16 14:11:11;;;;;;;2.80;1.73;;;;;;;11.96;35.11;93178.00;5014487;28;20560;-90
2021/04/16 14:13:37;;;;;;;;;;;;;;;11.95;34.31;93189.31;5014665;28;20042;-90
2021/04/16 14:16:06;;;;;;;29.83;9.88;;;;;;;11.39;35.55;93190.16;5014328;28;20405;-90